sensor_id;sensor_type;location;lat;lon;timestamp;pressure;altitude;pressure_sealevel;temperature;humidity
84649;BME280;76539;52.392;16.888;2024-03-23T00:55:09;99793.0;;;9.12;99.42
84649;BME280;76539;52.392;16.888;2024-03-23T01:10:09;99772.0;;;9.13;99.65
84649;BME280;76539;52.392;16.888;2024-03-23T01:25:09;99751.0;;;9.15;99.72
84649;BME280;76539;52.392;16.888;2024-03-23T01:40:09;99744.0;;;9.15;99.81
84649;BME280;76539;52.392;16.888;2024-03-23T01:55:09;99719.0;;;9.19;99.92
84649;BME280;76539;52.392;16.888;2024-03-23T02:10:09;99696.0;;;9.19;99.9
84649;BME280;76539;52.392;16.888;2024-03-23T02:25:09;99687.0;;;9.21;100.0
84649;BME280;76539;52.392;16.888;2024-03-23T02:40:09;99671.0;;;9.23;100.0
84649;BME280;76539;52.392;16.888;2024-03-23T02:55:09;99663.0;;;9.24;100.0
84649;BME280;76539;52.392;16.888;2024-03-23T03:10:09;99637.0;;;9.25;100.0
84649;BME280;76539;52.392;16.888;2024-03-23T03:25:09;99618.0;;;9.24;100.0
84649;BME280;76539;52.392;16.888;2024-03-23T03:40:09;99584.0;;;9.24;100.0
84649;BME280;76539;52.392;16.888;2024-03-23T03:55:09;99596.0;;;9.23;100.0
84649;BME280;76539;52.392;16.888;2024-03-23T04:10:10;99585.0;;;9.21;100.0
84649;BME280;76539;52.392;16.888;2024-03-23T04:25:10;99586.0;;;9.23;99.98
84649;BME280;76539;52.392;16.888;2024-03-23T04:40:10;99597.0;;;8.24;96.82
84649;BME280;76539;52.392;16.888;2024-03-23T04:55:09;99550.0;;;7.65;97.28
84649;BME280;76539;52.392;16.888;2024-03-23T05:10:09;99524.0;;;7.45;98.46
84649;BME280;76539;52.392;16.888;2024-03-23T05:25:09;99525.0;;;7.26;97.93
84649;BME280;76539;52.392;16.888;2024-03-23T05:40:09;99512.0;;;7.21;98.44
84649;BME280;76539;52.392;16.888;2024-03-23T05:55:09;99521.0;;;7.26;98.02
84649;BME280;76539;52.392;16.888;2024-03-23T06:10:09;99505.0;;;7.17;97.97
84649;BME280;76539;52.392;16.888;2024-03-23T06:25:09;99510.0;;;7.21;98.27
84649;BME280;76539;52.392;16.888;2024-03-23T06:40:09;99488.0;;;7.13;98.16
84649;BME280;76539;52.392;16.888;2024-03-23T06:55:09;99454.0;;;7.22;98.19
84649;BME280;76539;52.392;16.888;2024-03-23T07:10:09;99459.0;;;7.34;98.64
84649;BME280;76539;52.392;16.888;2024-03-23T07:25:09;99405.0;;;7.35;97.19
84649;BME280;76539;52.392;16.888;2024-03-23T07:40:09;99445.0;;;7.42;98.05
84649;BME280;76539;52.392;16.888;2024-03-23T07:55:09;99391.0;;;7.51;97.39
84649;BME280;76539;52.392;16.888;2024-03-23T08:10:09;99361.0;;;7.99;96.49
84649;BME280;76539;52.392;16.888;2024-03-23T08:25:09;99340.0;;;7.96;95.62
84649;BME280;76539;52.392;16.888;2024-03-23T08:40:09;99329.0;;;8.09;95.69
84649;BME280;76539;52.392;16.888;2024-03-23T08:55:09;99279.0;;;8.64;94.32
84649;BME280;76539;52.392;16.888;2024-03-23T09:10:09;99264.0;;;8.46;94.22
84649;BME280;76539;52.392;16.888;2024-03-23T09:25:10;99265.0;;;8.18;94.7
84649;BME280;76539;52.392;16.888;2024-03-23T09:40:10;99239.0;;;7.99;95.62
84649;BME280;76539;52.392;16.888;2024-03-23T09:55:10;99220.0;;;7.96;95.35
84649;BME280;76539;52.392;16.888;2024-03-23T10:10:10;99215.0;;;7.78;95.33
84649;BME280;76539;52.392;16.888;2024-03-23T10:25:10;99190.0;;;7.65;95.87
84649;BME280;76539;52.392;16.888;2024-03-23T10:40:09;99187.0;;;7.65;96.25
84649;BME280;76539;52.392;16.888;2024-03-23T10:55:09;99160.0;;;7.7;95.87
84649;BME280;76539;52.392;16.888;2024-03-23T11:10:09;99141.0;;;7.68;95.64
84649;BME280;76539;52.392;16.888;2024-03-23T11:25:09;99097.0;;;7.99;94.94
84649;BME280;76539;52.392;16.888;2024-03-23T11:40:09;99059.0;;;7.58;95.02
84649;BME280;76539;52.392;16.888;2024-03-23T11:55:09;99020.0;;;7.59;94.13
84649;BME280;76539;52.392;16.888;2024-03-23T12:10:09;99002.0;;;7.48;94.83
84649;BME280;76539;52.392;16.888;2024-03-23T12:25:09;99001.0;;;7.46;95.29
84649;BME280;76539;52.392;16.888;2024-03-23T12:40:09;98958.0;;;7.55;95.18
84649;BME280;76539;52.392;16.888;2024-03-23T12:55:09;98968.0;;;7.24;95.26
84649;BME280;76539;52.392;16.888;2024-03-23T13:10:09;99098.0;;;6.59;94.78
84649;BME280;76539;52.392;16.888;2024-03-23T13:25:09;99140.0;;;5.99;94.73
84649;BME280;76539;52.392;16.888;2024-03-23T13:40:09;99192.0;;;5.54;93.19
84649;BME280;76539;52.392;16.888;2024-03-23T13:55:09;99255.0;;;4.97;94.57
84649;BME280;76539;52.392;16.888;2024-03-23T14:10:09;99250.0;;;4.53;93.4
84649;BME280;76539;52.392;16.888;2024-03-23T14:25:09;99276.0;;;4.33;94.95
84649;BME280;76539;52.392;16.888;2024-03-23T14:40:09;99347.0;;;4.42;95.03
84649;BME280;76539;52.392;16.888;2024-03-23T14:55:10;99412.0;;;4.34;94.92
84649;BME280;76539;52.392;16.888;2024-03-23T15:10:10;99449.0;;;4.33;95.7
84649;BME280;76539;52.392;16.888;2024-03-23T15:25:10;99447.0;;;4.28;95.02
84649;BME280;76539;52.392;16.888;2024-03-23T15:40:10;99495.0;;;4.13;95.35
84649;BME280;76539;52.392;16.888;2024-03-23T15:55:09;99504.0;;;4.17;95.15
84649;BME280;76539;52.392;16.888;2024-03-23T16:10:09;99512.0;;;4.16;94.91
84649;BME280;76539;52.392;16.888;2024-03-23T16:25:09;99508.0;;;4.05;94.38
84649;BME280;76539;52.392;16.888;2024-03-23T16:40:09;99538.0;;;4.01;94.9
84649;BME280;76539;52.392;16.888;2024-03-23T16:55:09;99556.0;;;3.87;95.0
84649;BME280;76539;52.392;16.888;2024-03-23T17:10:09;99565.0;;;3.82;94.12
84649;BME280;76539;52.392;16.888;2024-03-23T17:25:09;99575.0;;;3.87;94.2
84649;BME280;76539;52.392;16.888;2024-03-23T17:40:09;99628.0;;;3.66;94.67
84649;BME280;76539;52.392;16.888;2024-03-23T17:55:09;99630.0;;;3.49;94.73
84649;BME280;76539;52.392;16.888;2024-03-23T18:10:09;99614.0;;;3.51;95.15
84649;BME280;76539;52.392;16.888;2024-03-23T18:25:09;99739.0;;;3.4;95.27
84649;BME280;76539;52.392;16.888;2024-03-23T18:40:09;99679.0;;;3.33;95.4
84649;BME280;76539;52.392;16.888;2024-03-23T18:55:09;99679.0;;;3.29;95.94
84649;BME280;76539;52.392;16.888;2024-03-23T19:10:09;99685.0;;;3.22;96.18
84649;BME280;76539;52.392;16.888;2024-03-23T19:25:09;99678.0;;;3.18;96.13
84649;BME280;76539;52.392;16.888;2024-03-23T19:40:09;99668.0;;;3.08;96.41
84649;BME280;76539;52.392;16.888;2024-03-23T19:55:09;99675.0;;;3.0;96.66
84649;BME280;76539;52.392;16.888;2024-03-23T20:10:09;99650.0;;;2.89;97.03
84649;BME280;76539;52.392;16.888;2024-03-23T20:25:09;99632.0;;;2.82;97.12
84649;BME280;76539;52.392;16.888;2024-03-23T20:40:09;99618.0;;;2.77;97.12
84649;BME280;76539;52.392;16.888;2024-03-23T20:55:09;99612.0;;;2.79;97.35
84649;BME280;76539;52.392;16.888;2024-03-23T21:10:09;99608.0;;;2.65;97.64
84649;BME280;76539;52.392;16.888;2024-03-23T21:25:10;99599.0;;;2.6;97.91
84649;BME280;76539;52.392;16.888;2024-03-23T21:40:10;99604.0;;;2.63;97.86
84649;BME280;76539;52.392;16.888;2024-03-23T21:55:10;99586.0;;;2.65;97.81
84649;BME280;76539;52.392;16.888;2024-03-23T22:10:09;99566.0;;;2.65;98.07
84649;BME280;76539;52.392;16.888;2024-03-23T22:25:09;99553.0;;;2.76;97.9
84649;BME280;76539;52.392;16.888;2024-03-23T22:40:09;99537.0;;;2.75;97.86
84649;BME280;76539;52.392;16.888;2024-03-23T22:55:09;99525.0;;;2.76;97.47
84649;BME280;76539;52.392;16.888;2024-03-23T23:10:09;99516.0;;;2.81;96.99
84649;BME280;76539;52.392;16.888;2024-03-23T23:25:09;99523.0;;;2.75;96.72
84649;BME280;76539;52.392;16.888;2024-03-23T23:40:09;99518.0;;;2.67;96.75
84649;BME280;76539;52.392;16.888;2024-03-23T23:55:09;99512.0;;;2.75;96.71
